sensor_id;sensor_type;location;lat;lon;timestamp;temperature;humidity
52471;DHT22;38382;53.160;7.026;2023-04-24T00:00:04;11.20;99.90
52471;DHT22;38382;53.160;7.026;2023-04-24T00:02:38;11.10;99.90
52471;DHT22;38382;53.160;7.026;2023-04-24T00:05:07;11.00;99.90
52471;DHT22;38382;53.160;7.026;2023-04-24T00:07:34;10.90;99.90
52471;DHT22;38382;53.160;7.026;2023-04-24T00:10:00;10.80;99.90
52471;DHT22;38382;53.160;7.026;2023-04-24T00:12:26;10.70;99.90
52471;DHT22;38382;53.160;7.026;2023-04-24T00:14:52;10.60;99.90
52471;DHT22;38382;53.160;7.026;2023-04-24T00:17:18;10.60;99.90
52471;DHT22;38382;53.160;7.026;2023-04-24T00:19:47;10.50;99.90
52471;DHT22;38382;53.160;7.026;2023-04-24T00:22:12;10.40;99.90
52471;DHT22;38382;53.160;7.026;2023-04-24T00:24:41;10.30;99.90
52471;DHT22;38382;53.160;7.026;2023-04-24T00:27:06;10.30;99.90
52471;DHT22;38382;53.160;7.026;2023-04-24T00:29:32;10.20;99.90
52471;DHT22;38382;53.160;7.026;2023-04-24T00:31:58;10.10;99.90
52471;DHT22;38382;53.160;7.026;2023-04-24T00:34:23;10.10;99.90
52471;DHT22;38382;53.160;7.026;2023-04-24T00:36:49;10.10;99.90
52471;DHT22;38382;53.160;7.026;2023-04-24T00:39:19;10.10;99.90
52471;DHT22;38382;53.160;7.026;2023-04-24T00:41:45;10.00;99.90
52471;DHT22;38382;53.160;7.026;2023-04-24T00:44:11;10.00;99.90
52471;DHT22;38382;53.160;7.026;2023-04-24T00:46:37;9.90;99.90
52471;DHT22;38382;53.160;7.026;2023-04-24T00:49:04;9.90;99.90
52471;DHT22;38382;53.160;7.026;2023-04-24T00:51:31;9.90;99.90
52471;DHT22;38382;53.160;7.026;2023-04-24T00:53:58;9.90;99.90
52471;DHT22;38382;53.160;7.026;2023-04-24T00:56:25;9.90;99.90
52471;DHT22;38382;53.160;7.026;2023-04-24T00:58:51;9.80;99.90
52471;DHT22;38382;53.160;7.026;2023-04-24T01:01:19;9.80;99.90
52471;DHT22;38382;53.160;7.026;2023-04-24T01:03:46;9.80;99.90
52471;DHT22;38382;53.160;7.026;2023-04-24T01:06:13;9.80;99.90
52471;DHT22;38382;53.160;7.026;2023-04-24T01:08:39;9.80;99.90
52471;DHT22;38382;53.160;7.026;2023-04-24T01:11:06;9.80;99.90
52471;DHT22;38382;53.160;7.026;2023-04-24T01:13:32;9.90;99.90
52471;DHT22;38382;53.160;7.026;2023-04-24T01:15:59;9.80;99.90
52471;DHT22;38382;53.160;7.026;2023-04-24T01:18:26;9.90;99.90
52471;DHT22;38382;53.160;7.026;2023-04-24T01:20:54;9.80;99.90
52471;DHT22;38382;53.160;7.026;2023-04-24T01:23:22;9.80;99.90
52471;DHT22;38382;53.160;7.026;2023-04-24T01:25:49;9.80;99.90
52471;DHT22;38382;53.160;7.026;2023-04-24T01:28:15;9.70;99.90
52471;DHT22;38382;53.160;7.026;2023-04-24T01:30:41;9.70;99.90
52471;DHT22;38382;53.160;7.026;2023-04-24T01:33:07;9.70;99.90
52471;DHT22;38382;53.160;7.026;2023-04-24T01:35:33;9.70;99.90
52471;DHT22;38382;53.160;7.026;2023-04-24T01:37:59;9.70;99.90
52471;DHT22;38382;53.160;7.026;2023-04-24T01:40:25;9.70;99.90
52471;DHT22;38382;53.160;7.026;2023-04-24T01:42:51;9.70;99.90
52471;DHT22;38382;53.160;7.026;2023-04-24T01:45:17;9.70;99.90
52471;DHT22;38382;53.160;7.026;2023-04-24T01:47:44;9.70;99.90
52471;DHT22;38382;53.160;7.026;2023-04-24T01:50:10;9.70;99.90
52471;DHT22;38382;53.160;7.026;2023-04-24T01:52:36;9.60;99.90
52471;DHT22;38382;53.160;7.026;2023-04-24T01:55:03;9.70;99.90
52471;DHT22;38382;53.160;7.026;2023-04-24T01:57:30;9.70;99.90
52471;DHT22;38382;53.160;7.026;2023-04-24T01:59:56;9.70;99.90
52471;DHT22;38382;53.160;7.026;2023-04-24T02:02:22;9.70;99.90
52471;DHT22;38382;53.160;7.026;2023-04-24T02:04:50;9.70;99.90
52471;DHT22;38382;53.160;7.026;2023-04-24T02:07:16;9.70;99.90
52471;DHT22;38382;53.160;7.026;2023-04-24T02:09:41;9.70;99.90
52471;DHT22;38382;53.160;7.026;2023-04-24T02:12:07;9.70;99.90
52471;DHT22;38382;53.160;7.026;2023-04-24T02:14:33;9.70;99.90
52471;DHT22;38382;53.160;7.026;2023-04-24T02:16:59;9.70;99.90
52471;DHT22;38382;53.160;7.026;2023-04-24T02:19:26;9.70;99.90
52471;DHT22;38382;53.160;7.026;2023-04-24T02:21:52;9.70;99.90
52471;DHT22;38382;53.160;7.026;2023-04-24T02:24:18;9.80;99.90
52471;DHT22;38382;53.160;7.026;2023-04-24T02:26:44;9.70;99.90
52471;DHT22;38382;53.160;7.026;2023-04-24T02:29:10;9.70;99.90
52471;DHT22;38382;53.160;7.026;2023-04-24T02:31:36;9.80;99.90
52471;DHT22;38382;53.160;7.026;2023-04-24T02:34:01;9.80;99.90
52471;DHT22;38382;53.160;7.026;2023-04-24T02:36:27;9.70;99.90
52471;DHT22;38382;53.160;7.026;2023-04-24T02:38:53;9.70;99.90
52471;DHT22;38382;53.160;7.026;2023-04-24T02:41:19;9.70;99.90
52471;DHT22;38382;53.160;7.026;2023-04-24T02:43:45;9.70;99.90
52471;DHT22;38382;53.160;7.026;2023-04-24T02:46:11;9.80;99.90
52471;DHT22;38382;53.160;7.026;2023-04-24T02:48:36;9.70;99.90
52471;DHT22;38382;53.160;7.026;2023-04-24T02:51:02;9.70;99.90
52471;DHT22;38382;53.160;7.026;2023-04-24T02:53:28;9.70;99.90
52471;DHT22;38382;53.160;7.026;2023-04-24T02:55:56;9.60;99.90
52471;DHT22;38382;53.160;7.026;2023-04-24T02:58:22;9.60;99.90
52471;DHT22;38382;53.160;7.026;2023-04-24T03:00:48;9.60;99.90
52471;DHT22;38382;53.160;7.026;2023-04-24T03:03:14;9.60;99.90
52471;DHT22;38382;53.160;7.026;2023-04-24T03:05:40;9.60;99.90
52471;DHT22;38382;53.160;7.026;2023-04-24T03:08:06;9.60;99.90
52471;DHT22;38382;53.160;7.026;2023-04-24T03:10:32;9.50;99.90
52471;DHT22;38382;53.160;7.026;2023-04-24T03:12:58;9.50;99.90
52471;DHT22;38382;53.160;7.026;2023-04-24T03:15:24;9.50;99.90
52471;DHT22;38382;53.160;7.026;2023-04-24T03:17:49;9.50;99.90
52471;DHT22;38382;53.160;7.026;2023-04-24T03:20:15;9.50;99.90
52471;DHT22;38382;53.160;7.026;2023-04-24T03:22:41;9.50;99.90
52471;DHT22;38382;53.160;7.026;2023-04-24T03:25:07;9.50;99.90
52471;DHT22;38382;53.160;7.026;2023-04-24T03:27:35;9.40;99.90
52471;DHT22;38382;53.160;7.026;2023-04-24T03:30:01;9.50;99.90
52471;DHT22;38382;53.160;7.026;2023-04-24T03:32:27;9.40;99.90
52471;DHT22;38382;53.160;7.026;2023-04-24T03:34:53;9.40;99.90
52471;DHT22;38382;53.160;7.026;2023-04-24T03:37:18;9.40;99.90
52471;DHT22;38382;53.160;7.026;2023-04-24T03:39:44;9.40;99.90
52471;DHT22;38382;53.160;7.026;2023-04-24T03:42:10;9.40;99.90
52471;DHT22;38382;53.160;7.026;2023-04-24T03:44:36;9.40;99.90
52471;DHT22;38382;53.160;7.026;2023-04-24T03:47:02;9.40;99.90
52471;DHT22;38382;53.160;7.026;2023-04-24T03:49:27;9.40;99.90
52471;DHT22;38382;53.160;7.026;2023-04-24T03:51:53;9.40;99.90
52471;DHT22;38382;53.160;7.026;2023-04-24T03:54:19;9.40;99.90
52471;DHT22;38382;53.160;7.026;2023-04-24T03:56:45;9.40;99.90
52471;DHT22;38382;53.160;7.026;2023-04-24T03:59:11;9.40;99.90
52471;DHT22;38382;53.160;7.026;2023-04-24T04:01:37;9.30;99.90
52471;DHT22;38382;53.160;7.026;2023-04-24T04:04:03;9.40;99.90
52471;DHT22;38382;53.160;7.026;2023-04-24T04:06:29;9.30;99.90
52471;DHT22;38382;53.160;7.026;2023-04-24T04:08:57;9.30;99.90
52471;DHT22;38382;53.160;7.026;2023-04-24T04:11:23;9.30;99.90
52471;DHT22;38382;53.160;7.026;2023-04-24T04:13:48;9.30;99.90
52471;DHT22;38382;53.160;7.026;2023-04-24T04:16:14;9.30;99.90
52471;DHT22;38382;53.160;7.026;2023-04-24T04:18:42;9.20;99.90
52471;DHT22;38382;53.160;7.026;2023-04-24T04:21:08;9.30;99.90
52471;DHT22;38382;53.160;7.026;2023-04-24T04:23:34;9.30;99.90
52471;DHT22;38382;53.160;7.026;2023-04-24T04:26:00;9.20;99.90
52471;DHT22;38382;53.160;7.026;2023-04-24T04:28:26;9.20;99.90
52471;DHT22;38382;53.160;7.026;2023-04-24T04:30:52;9.30;99.90
52471;DHT22;38382;53.160;7.026;2023-04-24T04:33:22;9.30;99.90
52471;DHT22;38382;53.160;7.026;2023-04-24T04:35:48;9.20;99.90
52471;DHT22;38382;53.160;7.026;2023-04-24T04:38:22;9.20;99.90
52471;DHT22;38382;53.160;7.026;2023-04-24T04:40:48;9.20;99.90
52471;DHT22;38382;53.160;7.026;2023-04-24T04:43:14;9.30;99.90
52471;DHT22;38382;53.160;7.026;2023-04-24T04:45:40;9.20;99.90
52471;DHT22;38382;53.160;7.026;2023-04-24T04:48:08;9.20;99.90
52471;DHT22;38382;53.160;7.026;2023-04-24T04:50:35;9.20;99.90
52471;DHT22;38382;53.160;7.026;2023-04-24T04:53:01;9.30;99.90
52471;DHT22;38382;53.160;7.026;2023-04-24T04:55:26;9.20;99.90
52471;DHT22;38382;53.160;7.026;2023-04-24T04:57:52;9.20;99.90
52471;DHT22;38382;53.160;7.026;2023-04-24T05:00:18;9.20;99.90
52471;DHT22;38382;53.160;7.026;2023-04-24T05:02:44;9.30;99.90
52471;DHT22;38382;53.160;7.026;2023-04-24T05:05:10;9.20;99.90
52471;DHT22;38382;53.160;7.026;2023-04-24T05:07:36;9.30;99.90
52471;DHT22;38382;53.160;7.026;2023-04-24T05:10:02;9.30;99.90
52471;DHT22;38382;53.160;7.026;2023-04-24T05:12:28;9.20;99.90
52471;DHT22;38382;53.160;7.026;2023-04-24T05:14:54;9.20;99.90
52471;DHT22;38382;53.160;7.026;2023-04-24T05:17:19;9.20;99.90
52471;DHT22;38382;53.160;7.026;2023-04-24T05:19:45;9.20;99.90
52471;DHT22;38382;53.160;7.026;2023-04-24T05:22:11;9.20;99.90
52471;DHT22;38382;53.160;7.026;2023-04-24T05:24:37;9.20;99.90
52471;DHT22;38382;53.160;7.026;2023-04-24T05:27:04;9.20;99.90
52471;DHT22;38382;53.160;7.026;2023-04-24T05:29:33;9.20;99.90
52471;DHT22;38382;53.160;7.026;2023-04-24T05:31:59;9.20;99.90
52471;DHT22;38382;53.160;7.026;2023-04-24T05:34:25;9.20;99.90
52471;DHT22;38382;53.160;7.026;2023-04-24T05:36:51;9.20;99.90
52471;DHT22;38382;53.160;7.026;2023-04-24T05:39:17;9.20;99.90
52471;DHT22;38382;53.160;7.026;2023-04-24T05:41:43;9.20;99.90
52471;DHT22;38382;53.160;7.026;2023-04-24T05:44:09;9.20;99.90
52471;DHT22;38382;53.160;7.026;2023-04-24T05:46:35;9.20;99.90
52471;DHT22;38382;53.160;7.026;2023-04-24T05:49:01;9.30;99.90
52471;DHT22;38382;53.160;7.026;2023-04-24T05:51:27;9.20;99.90
52471;DHT22;38382;53.160;7.026;2023-04-24T05:53:54;9.30;99.90
52471;DHT22;38382;53.160;7.026;2023-04-24T05:56:20;9.40;99.90
52471;DHT22;38382;53.160;7.026;2023-04-24T05:58:46;9.30;99.90
52471;DHT22;38382;53.160;7.026;2023-04-24T06:01:12;9.40;99.90
52471;DHT22;38382;53.160;7.026;2023-04-24T06:03:40;9.30;99.90
52471;DHT22;38382;53.160;7.026;2023-04-24T06:06:07;9.30;99.90
52471;DHT22;38382;53.160;7.026;2023-04-24T06:08:32;9.30;99.90
52471;DHT22;38382;53.160;7.026;2023-04-24T06:10:58;9.20;99.90
52471;DHT22;38382;53.160;7.026;2023-04-24T06:13:24;9.30;99.90
52471;DHT22;38382;53.160;7.026;2023-04-24T06:15:52;9.40;99.90
52471;DHT22;38382;53.160;7.026;2023-04-24T06:18:17;9.40;99.90
52471;DHT22;38382;53.160;7.026;2023-04-24T06:20:44;9.30;99.90
52471;DHT22;38382;53.160;7.026;2023-04-24T06:23:10;9.40;99.90
52471;DHT22;38382;53.160;7.026;2023-04-24T06:25:36;9.40;99.90
52471;DHT22;38382;53.160;7.026;2023-04-24T06:28:01;9.40;99.90
52471;DHT22;38382;53.160;7.026;2023-04-24T06:30:28;9.40;99.90
52471;DHT22;38382;53.160;7.026;2023-04-24T06:32:53;9.50;99.90
52471;DHT22;38382;53.160;7.026;2023-04-24T06:35:19;9.50;99.90
52471;DHT22;38382;53.160;7.026;2023-04-24T06:37:45;9.50;99.90
52471;DHT22;38382;53.160;7.026;2023-04-24T06:40:11;9.50;99.90
52471;DHT22;38382;53.160;7.026;2023-04-24T06:42:37;9.50;99.90
52471;DHT22;38382;53.160;7.026;2023-04-24T06:45:03;9.50;99.90
52471;DHT22;38382;53.160;7.026;2023-04-24T06:47:29;9.50;99.90
52471;DHT22;38382;53.160;7.026;2023-04-24T06:49:55;9.50;99.90
52471;DHT22;38382;53.160;7.026;2023-04-24T06:52:21;9.50;99.90
52471;DHT22;38382;53.160;7.026;2023-04-24T06:54:47;9.50;99.90
52471;DHT22;38382;53.160;7.026;2023-04-24T06:57:12;9.50;99.90
52471;DHT22;38382;53.160;7.026;2023-04-24T06:59:38;9.50;99.90
52471;DHT22;38382;53.160;7.026;2023-04-24T07:02:04;9.50;99.90
52471;DHT22;38382;53.160;7.026;2023-04-24T07:04:30;9.50;99.90
52471;DHT22;38382;53.160;7.026;2023-04-24T07:06:56;9.60;99.90
52471;DHT22;38382;53.160;7.026;2023-04-24T07:09:26;9.60;99.90
52471;DHT22;38382;53.160;7.026;2023-04-24T07:11:53;9.60;99.90
52471;DHT22;38382;53.160;7.026;2023-04-24T07:14:19;9.70;99.90
52471;DHT22;38382;53.160;7.026;2023-04-24T07:16:46;9.60;99.90
52471;DHT22;38382;53.160;7.026;2023-04-24T07:19:13;9.80;99.90
52471;DHT22;38382;53.160;7.026;2023-04-24T07:21:39;9.60;99.90
52471;DHT22;38382;53.160;7.026;2023-04-24T07:24:05;9.70;99.90
52471;DHT22;38382;53.160;7.026;2023-04-24T07:26:34;9.70;99.90
52471;DHT22;38382;53.160;7.026;2023-04-24T07:29:00;9.80;99.90
52471;DHT22;38382;53.160;7.026;2023-04-24T07:31:26;9.80;99.90
52471;DHT22;38382;53.160;7.026;2023-04-24T07:33:51;9.70;99.90
52471;DHT22;38382;53.160;7.026;2023-04-24T07:36:17;9.80;99.90
52471;DHT22;38382;53.160;7.026;2023-04-24T07:38:47;9.80;99.90
52471;DHT22;38382;53.160;7.026;2023-04-24T07:41:14;9.80;99.90
52471;DHT22;38382;53.160;7.026;2023-04-24T07:43:40;9.90;99.90
52471;DHT22;38382;53.160;7.026;2023-04-24T07:46:06;10.00;99.90
52471;DHT22;38382;53.160;7.026;2023-04-24T07:48:32;10.00;99.90
52471;DHT22;38382;53.160;7.026;2023-04-24T07:50:58;10.00;99.90
52471;DHT22;38382;53.160;7.026;2023-04-24T07:53:24;10.10;99.90
52471;DHT22;38382;53.160;7.026;2023-04-24T07:55:50;10.10;99.90
52471;DHT22;38382;53.160;7.026;2023-04-24T07:58:16;10.20;99.90
52471;DHT22;38382;53.160;7.026;2023-04-24T08:00:41;10.30;99.90
52471;DHT22;38382;53.160;7.026;2023-04-24T08:03:07;10.30;99.90
52471;DHT22;38382;53.160;7.026;2023-04-24T08:05:33;10.30;99.90
52471;DHT22;38382;53.160;7.026;2023-04-24T08:07:59;10.40;99.90
52471;DHT22;38382;53.160;7.026;2023-04-24T08:10:25;10.30;99.90
52471;DHT22;38382;53.160;7.026;2023-04-24T08:12:51;10.30;99.90
52471;DHT22;38382;53.160;7.026;2023-04-24T08:15:17;10.30;99.90
52471;DHT22;38382;53.160;7.026;2023-04-24T08:17:43;10.30;99.90
52471;DHT22;38382;53.160;7.026;2023-04-24T08:20:10;10.40;99.90
52471;DHT22;38382;53.160;7.026;2023-04-24T08:22:42;10.40;99.90
52471;DHT22;38382;53.160;7.026;2023-04-24T08:25:10;10.40;99.90
52471;DHT22;38382;53.160;7.026;2023-04-24T08:27:36;10.40;99.90
52471;DHT22;38382;53.160;7.026;2023-04-24T08:30:03;10.30;99.90
52471;DHT22;38382;53.160;7.026;2023-04-24T08:32:29;10.30;99.90
52471;DHT22;38382;53.160;7.026;2023-04-24T08:34:59;10.30;99.90
52471;DHT22;38382;53.160;7.026;2023-04-24T08:37:26;10.40;99.90
52471;DHT22;38382;53.160;7.026;2023-04-24T08:39:52;10.30;99.90
52471;DHT22;38382;53.160;7.026;2023-04-24T08:42:19;10.30;99.90
52471;DHT22;38382;53.160;7.026;2023-04-24T08:44:46;10.30;99.90
52471;DHT22;38382;53.160;7.026;2023-04-24T08:47:12;10.20;99.90
52471;DHT22;38382;53.160;7.026;2023-04-24T08:49:38;10.20;99.90
52471;DHT22;38382;53.160;7.026;2023-04-24T08:52:07;10.20;99.90
52471;DHT22;38382;53.160;7.026;2023-04-24T08:54:36;10.20;99.90
52471;DHT22;38382;53.160;7.026;2023-04-24T08:57:03;10.10;99.90
52471;DHT22;38382;53.160;7.026;2023-04-24T08:59:30;10.00;99.90
52471;DHT22;38382;53.160;7.026;2023-04-24T09:01:57;10.00;99.90
52471;DHT22;38382;53.160;7.026;2023-04-24T09:04:24;9.90;99.90
52471;DHT22;38382;53.160;7.026;2023-04-24T09:06:57;9.90;99.90
52471;DHT22;38382;53.160;7.026;2023-04-24T09:09:24;9.90;99.90
52471;DHT22;38382;53.160;7.026;2023-04-24T09:11:51;9.90;99.90
52471;DHT22;38382;53.160;7.026;2023-04-24T09:14:19;9.80;99.90
52471;DHT22;38382;53.160;7.026;2023-04-24T09:16:46;9.80;99.90
52471;DHT22;38382;53.160;7.026;2023-04-24T09:19:12;9.70;99.90
52471;DHT22;38382;53.160;7.026;2023-04-24T09:21:38;9.70;99.90
52471;DHT22;38382;53.160;7.026;2023-04-24T09:24:06;9.70;99.90
52471;DHT22;38382;53.160;7.026;2023-04-24T09:26:35;9.70;99.90
52471;DHT22;38382;53.160;7.026;2023-04-24T09:29:02;9.60;99.90
52471;DHT22;38382;53.160;7.026;2023-04-24T09:31:29;9.60;99.90
52471;DHT22;38382;53.160;7.026;2023-04-24T09:34:00;9.50;99.90
52471;DHT22;38382;53.160;7.026;2023-04-24T09:37:00;9.50;99.90
52471;DHT22;38382;53.160;7.026;2023-04-24T09:39:19;9.40;99.90
52471;DHT22;38382;53.160;7.026;2023-04-24T09:41:49;9.40;99.90
52471;DHT22;38382;53.160;7.026;2023-04-24T09:46:44;9.30;99.90
52471;DHT22;38382;53.160;7.026;2023-04-24T09:49:13;9.30;99.90
52471;DHT22;38382;53.160;7.026;2023-04-24T09:51:41;9.20;99.90
52471;DHT22;38382;53.160;7.026;2023-04-24T09:54:27;9.30;99.90
52471;DHT22;38382;53.160;7.026;2023-04-24T09:56:54;9.20;99.90
52471;DHT22;38382;53.160;7.026;2023-04-24T09:59:21;9.20;99.90
52471;DHT22;38382;53.160;7.026;2023-04-24T10:01:47;9.20;99.90
52471;DHT22;38382;53.160;7.026;2023-04-24T10:04:21;9.20;99.90
52471;DHT22;38382;53.160;7.026;2023-04-24T10:06:48;9.20;99.90
52471;DHT22;38382;53.160;7.026;2023-04-24T10:09:15;9.20;99.90
52471;DHT22;38382;53.160;7.026;2023-04-24T10:11:43;9.30;99.90
52471;DHT22;38382;53.160;7.026;2023-04-24T10:14:17;9.30;99.90
52471;DHT22;38382;53.160;7.026;2023-04-24T10:16:43;9.30;99.90
52471;DHT22;38382;53.160;7.026;2023-04-24T10:19:10;9.30;99.90
52471;DHT22;38382;53.160;7.026;2023-04-24T10:21:36;9.30;99.90
52471;DHT22;38382;53.160;7.026;2023-04-24T10:24:11;9.30;99.90
52471;DHT22;38382;53.160;7.026;2023-04-24T10:26:37;9.30;99.90
52471;DHT22;38382;53.160;7.026;2023-04-24T10:29:05;9.30;99.90
52471;DHT22;38382;53.160;7.026;2023-04-24T10:31:36;9.30;99.90
52471;DHT22;38382;53.160;7.026;2023-04-24T10:34:04;9.30;99.90
52471;DHT22;38382;53.160;7.026;2023-04-24T10:36:31;9.20;99.90
52471;DHT22;38382;53.160;7.026;2023-04-24T10:39:00;9.20;99.90
52471;DHT22;38382;53.160;7.026;2023-04-24T10:41:26;9.10;99.90
52471;DHT22;38382;53.160;7.026;2023-04-24T10:44:12;9.00;99.90
52471;DHT22;38382;53.160;7.026;2023-04-24T10:46:42;9.00;99.90
52471;DHT22;38382;53.160;7.026;2023-04-24T10:49:08;9.00;99.90
52471;DHT22;38382;53.160;7.026;2023-04-24T10:51:53;9.00;99.90
52471;DHT22;38382;53.160;7.026;2023-04-24T10:54:30;9.10;99.90
52471;DHT22;38382;53.160;7.026;2023-04-24T10:59:44;8.50;99.90
52471;DHT22;38382;53.160;7.026;2023-04-24T11:02:09;9.20;99.90
52471;DHT22;38382;53.160;7.026;2023-04-24T11:04:35;9.20;99.90
52471;DHT22;38382;53.160;7.026;2023-04-24T11:07:03;9.30;99.90
52471;DHT22;38382;53.160;7.026;2023-04-24T11:09:32;9.40;99.90
52471;DHT22;38382;53.160;7.026;2023-04-24T11:12:06;9.40;99.90
52471;DHT22;38382;53.160;7.026;2023-04-24T11:17:37;9.50;99.90
52471;DHT22;38382;53.160;7.026;2023-04-24T11:20:10;9.60;99.90
52471;DHT22;38382;53.160;7.026;2023-04-24T11:22:38;9.60;99.90
52471;DHT22;38382;53.160;7.026;2023-04-24T11:25:06;9.60;99.90
52471;DHT22;38382;53.160;7.026;2023-04-24T11:27:40;9.60;99.90
52471;DHT22;38382;53.160;7.026;2023-04-24T11:30:07;9.70;99.90
52471;DHT22;38382;53.160;7.026;2023-04-24T11:35:21;9.70;99.90
52471;DHT22;38382;53.160;7.026;2023-04-24T11:37:52;9.80;99.90
52471;DHT22;38382;53.160;7.026;2023-04-24T11:40:20;9.90;99.90
52471;DHT22;38382;53.160;7.026;2023-04-24T11:42:49;10.00;99.90
52471;DHT22;38382;53.160;7.026;2023-04-24T11:45:24;10.00;99.90
52471;DHT22;38382;53.160;7.026;2023-04-24T11:47:50;10.00;99.90
52471;DHT22;38382;53.160;7.026;2023-04-24T11:50:19;10.00;99.90
52471;DHT22;38382;53.160;7.026;2023-04-24T11:52:46;10.00;99.90
52471;DHT22;38382;53.160;7.026;2023-04-24T11:57:48;10.00;99.90
52471;DHT22;38382;53.160;7.026;2023-04-24T12:00:18;9.90;99.90
52471;DHT22;38382;53.160;7.026;2023-04-24T12:02:44;9.90;99.90
52471;DHT22;38382;53.160;7.026;2023-04-24T12:05:20;10.30;99.90
52471;DHT22;38382;53.160;7.026;2023-04-24T12:07:46;9.70;99.90
52471;DHT22;38382;53.160;7.026;2023-04-24T12:10:12;9.70;99.90
52471;DHT22;38382;53.160;7.026;2023-04-24T12:12:37;9.70;99.90
52471;DHT22;38382;53.160;7.026;2023-04-24T12:15:07;9.60;99.90
52471;DHT22;38382;53.160;7.026;2023-04-24T12:17:34;9.60;99.90
52471;DHT22;38382;53.160;7.026;2023-04-24T12:20:06;9.60;99.90
52471;DHT22;38382;53.160;7.026;2023-04-24T12:25:19;9.60;99.90
52471;DHT22;38382;53.160;7.026;2023-04-24T12:27:46;9.60;99.90
52471;DHT22;38382;53.160;7.026;2023-04-24T12:30:16;9.70;99.90
52471;DHT22;38382;53.160;7.026;2023-04-24T12:32:47;9.90;99.90
52471;DHT22;38382;53.160;7.026;2023-04-24T12:35:14;10.00;99.90
52471;DHT22;38382;53.160;7.026;2023-04-24T12:37:44;10.00;99.90
52471;DHT22;38382;53.160;7.026;2023-04-24T12:40:11;10.00;99.90
52471;DHT22;38382;53.160;7.026;2023-04-24T12:42:46;10.00;99.90
52471;DHT22;38382;53.160;7.026;2023-04-24T12:45:12;9.90;99.90
52471;DHT22;38382;53.160;7.026;2023-04-24T12:47:39;9.80;99.90
52471;DHT22;38382;53.160;7.026;2023-04-24T12:50:09;9.70;99.90
52471;DHT22;38382;53.160;7.026;2023-04-24T12:52:36;9.70;99.90
52471;DHT22;38382;53.160;7.026;2023-04-24T12:55:02;9.50;99.90
52471;DHT22;38382;53.160;7.026;2023-04-24T12:57:30;9.40;99.90
52471;DHT22;38382;53.160;7.026;2023-04-24T12:59:58;9.40;99.90
52471;DHT22;38382;53.160;7.026;2023-04-24T13:02:26;9.30;99.90
52471;DHT22;38382;53.160;7.026;2023-04-24T13:04:53;9.30;99.90
52471;DHT22;38382;53.160;7.026;2023-04-24T13:07:19;9.30;99.90
52471;DHT22;38382;53.160;7.026;2023-04-24T13:09:48;9.30;99.90
52471;DHT22;38382;53.160;7.026;2023-04-24T13:12:14;9.50;99.90
52471;DHT22;38382;53.160;7.026;2023-04-24T13:14:40;9.50;99.90
52471;DHT22;38382;53.160;7.026;2023-04-24T13:17:06;9.60;99.90
52471;DHT22;38382;53.160;7.026;2023-04-24T13:19:37;9.70;99.90
52471;DHT22;38382;53.160;7.026;2023-04-24T13:22:03;9.80;99.90
52471;DHT22;38382;53.160;7.026;2023-04-24T13:24:29;9.90;99.90
52471;DHT22;38382;53.160;7.026;2023-04-24T13:26:57;9.90;99.90
52471;DHT22;38382;53.160;7.026;2023-04-24T13:29:23;9.90;99.90
52471;DHT22;38382;53.160;7.026;2023-04-24T13:31:53;10.00;99.90
52471;DHT22;38382;53.160;7.026;2023-04-24T13:34:26;10.10;99.90
52471;DHT22;38382;53.160;7.026;2023-04-24T13:36:53;10.10;99.90
52471;DHT22;38382;53.160;7.026;2023-04-24T13:39:20;10.10;99.90
52471;DHT22;38382;53.160;7.026;2023-04-24T13:41:46;10.00;99.90
52471;DHT22;38382;53.160;7.026;2023-04-24T13:44:14;10.00;99.90
52471;DHT22;38382;53.160;7.026;2023-04-24T13:46:41;9.90;99.90
52471;DHT22;38382;53.160;7.026;2023-04-24T13:49:09;9.70;99.90
52471;DHT22;38382;53.160;7.026;2023-04-24T13:51:34;9.70;99.90
52471;DHT22;38382;53.160;7.026;2023-04-24T13:54:00;9.60;99.90
52471;DHT22;38382;53.160;7.026;2023-04-24T13:56:26;9.50;99.90
52471;DHT22;38382;53.160;7.026;2023-04-24T13:58:52;9.40;99.90
52471;DHT22;38382;53.160;7.026;2023-04-24T14:01:19;9.40;99.90
52471;DHT22;38382;53.160;7.026;2023-04-24T14:03:46;9.30;99.90
52471;DHT22;38382;53.160;7.026;2023-04-24T14:06:12;9.30;99.90
52471;DHT22;38382;53.160;7.026;2023-04-24T14:08:37;9.20;99.90
52471;DHT22;38382;53.160;7.026;2023-04-24T14:11:03;9.30;99.90
52471;DHT22;38382;53.160;7.026;2023-04-24T14:13:29;9.30;99.90
52471;DHT22;38382;53.160;7.026;2023-04-24T14:15:55;9.40;99.90
52471;DHT22;38382;53.160;7.026;2023-04-24T14:18:21;9.50;99.90
52471;DHT22;38382;53.160;7.026;2023-04-24T14:20:47;9.60;99.90
52471;DHT22;38382;53.160;7.026;2023-04-24T14:23:12;9.70;99.90
52471;DHT22;38382;53.160;7.026;2023-04-24T14:25:38;9.90;99.90
52471;DHT22;38382;53.160;7.026;2023-04-24T14:28:05;10.10;99.90
52471;DHT22;38382;53.160;7.026;2023-04-24T14:30:31;10.10;99.90
52471;DHT22;38382;53.160;7.026;2023-04-24T14:32:57;10.10;99.90
52471;DHT22;38382;53.160;7.026;2023-04-24T14:35:23;10.00;99.90
52471;DHT22;38382;53.160;7.026;2023-04-24T14:37:48;10.00;99.90
52471;DHT22;38382;53.160;7.026;2023-04-24T14:40:14;9.90;99.90
52471;DHT22;38382;53.160;7.026;2023-04-24T14:42:40;9.80;99.90
52471;DHT22;38382;53.160;7.026;2023-04-24T14:45:06;9.60;99.90
52471;DHT22;38382;53.160;7.026;2023-04-24T14:47:33;9.40;99.90
52471;DHT22;38382;53.160;7.026;2023-04-24T14:49:59;9.30;99.90
52471;DHT22;38382;53.160;7.026;2023-04-24T14:52:25;9.30;99.90
52471;DHT22;38382;53.160;7.026;2023-04-24T14:54:50;9.20;99.90
52471;DHT22;38382;53.160;7.026;2023-04-24T14:57:16;9.20;99.90
52471;DHT22;38382;53.160;7.026;2023-04-24T14:59:42;9.20;99.90
52471;DHT22;38382;53.160;7.026;2023-04-24T15:02:07;9.20;99.90
52471;DHT22;38382;53.160;7.026;2023-04-24T15:04:33;9.30;99.90
52471;DHT22;38382;53.160;7.026;2023-04-24T15:06:59;9.20;99.90
52471;DHT22;38382;53.160;7.026;2023-04-24T15:09:25;9.20;99.90
52471;DHT22;38382;53.160;7.026;2023-04-24T15:11:52;9.30;99.90
52471;DHT22;38382;53.160;7.026;2023-04-24T15:14:18;9.40;99.90
52471;DHT22;38382;53.160;7.026;2023-04-24T15:16:44;9.50;99.90
52471;DHT22;38382;53.160;7.026;2023-04-24T15:19:10;9.60;99.90
52471;DHT22;38382;53.160;7.026;2023-04-24T15:21:37;9.60;99.90
52471;DHT22;38382;53.160;7.026;2023-04-24T15:24:04;9.70;99.90
52471;DHT22;38382;53.160;7.026;2023-04-24T15:26:29;9.70;99.90
52471;DHT22;38382;53.160;7.026;2023-04-24T15:28:55;9.70;99.90
52471;DHT22;38382;53.160;7.026;2023-04-24T15:31:21;9.70;99.90
52471;DHT22;38382;53.160;7.026;2023-04-24T15:33:49;9.80;99.90
52471;DHT22;38382;53.160;7.026;2023-04-24T15:36:15;9.90;99.90
52471;DHT22;38382;53.160;7.026;2023-04-24T15:38:42;9.80;99.90
52471;DHT22;38382;53.160;7.026;2023-04-24T15:41:08;9.80;99.90
52471;DHT22;38382;53.160;7.026;2023-04-24T15:43:34;9.70;99.90
52471;DHT22;38382;53.160;7.026;2023-04-24T15:46:01;9.70;99.90
52471;DHT22;38382;53.160;7.026;2023-04-24T15:48:27;9.70;99.90
52471;DHT22;38382;53.160;7.026;2023-04-24T15:50:53;9.60;99.90
52471;DHT22;38382;53.160;7.026;2023-04-24T15:53:19;9.60;99.90
52471;DHT22;38382;53.160;7.026;2023-04-24T15:55:51;9.60;99.90